logo tempoitalia

Diretta Meteo Salamanca-Matacan, Spagnalunedì 31 agosto ore 07:00

Mappa
Sereno 8 °C Sereno 24 Ore: T.min 8 T.max 27
Ponente Nord Km/h 1.8 Punto di rugiada: 7 °C Umidità: 93% Visibilità: 10 Km
Il sole sorge alle: 07:47 Il sole tramonta alle: 20:56
31 Agosto 2026 07:00 tempo osservato: Sereno Sereno 8 93 1022 vento: Nord N 1.8
31 Agosto 2026 06:30 tempo osservato: Sereno Sereno 8 93 1022 vento: Nord N 1.8
31 Agosto 2026 06:00 tempo osservato: Sereno Sereno 9 93 1022 vento: Nord N 3.7
31 Agosto 2026 05:30 tempo osservato: Sereno Sereno 9 93 1022 vento: Nord N 0
31 Agosto 2026 05:00 tempo osservato: Sereno Sereno 10 87 1022 vento: Nord N 3.7
31 Agosto 2026 04:30 tempo osservato: Sereno Sereno 10 87 1022 vento: Nord N 0
31 Agosto 2026 04:00 tempo osservato: Sereno Sereno 10 93 1022 vento: Nord N 1.8
31 Agosto 2026 03:30 tempo osservato: Sereno Sereno 10 87 1022 vento: Nord N 3.7
31 Agosto 2026 03:00 tempo osservato: Sereno Sereno 11 87 1022 vento: Nord N 5.5
31 Agosto 2026 02:30 tempo osservato: Sereno Sereno 12 81 1022 vento: Nord N 0
31 Agosto 2026 02:00 tempo osservato: Sereno Sereno 13 81 1022 vento: Nord N 1.8
31 Agosto 2026 01:30 tempo osservato: Sereno Sereno 13 81 1022 vento: Nord N 0
31 Agosto 2026 01:00 tempo osservato: Sereno Sereno 12 81 1022 vento: Nord N 5.5
31 Agosto 2026 00:30 tempo osservato: Sereno Sereno 15 62 1022 vento: Nord N 3.7
31 Agosto 2026 00:00 tempo osservato: Sereno Sereno 14 71 1022 vento: Nord N 3.7
30 Agosto 2026 23:30 tempo osservato: Sereno Sereno 16 63 1021 vento: Nord N 3.7
30 Agosto 2026 23:00 tempo osservato: Sereno Sereno 18 51 1021 vento: Nord N 5.5
30 Agosto 2026 22:30 tempo osservato: Sereno Sereno 18 48 1021 vento: Nord N 0
30 Agosto 2026 22:00 tempo osservato: Sereno Sereno 19 42 1021 vento: Nord NO 11.1
30 Agosto 2026 21:30 tempo osservato: Sereno Sereno 20 37 1020 vento: Nord NO 11.1
30 Agosto 2026 21:00 tempo osservato: Sereno Sereno 22 35 1020 vento: Nord NO 11.1
30 Agosto 2026 20:30 tempo osservato: Sereno Sereno 23 40 1020 vento: Nord O/NO 11.1
30 Agosto 2026 20:00 tempo osservato: Sereno Sereno 25 36 1020 vento: Nord O/NO 11.1
30 Agosto 2026 19:30 tempo osservato: Sereno Sereno 26 34 1020 vento: Nord O/NO 13
30 Agosto 2026 19:00 tempo osservato: Sereno Sereno 27 32 1020 vento: Nord O 16.7
30 Agosto 2026 18:30 tempo osservato: Sereno Sereno 27 34 1020 vento: Nord O/NO 16.7
30 Agosto 2026 18:00 tempo osservato: Sereno Sereno 27 36 1020 vento: Nord O/NO 16.7
30 Agosto 2026 17:30 tempo osservato: Sereno Sereno 27 36 1020 vento: Nord O/NO 14.8
30 Agosto 2026 17:00 tempo osservato: Sereno Sereno 27 34 1020 vento: Nord O 18.5
30 Agosto 2026 16:30 tempo osservato: Sereno Sereno 27 39 1020 vento: Nord O/NO 13
30 Agosto 2026 16:00 tempo osservato: Sereno Sereno 26 39 1020 vento: Nord O/NO 16.7
30 Agosto 2026 15:30 tempo osservato: Sereno Sereno 26 39 1021 vento: Nord O/NO 14.8
30 Agosto 2026 15:00 tempo osservato: Sereno Sereno 25 41 1021 vento: Nord O/NO 16.7
30 Agosto 2026 14:30 tempo osservato: Sereno Sereno 25 47 1021 vento: Nord N 9.3
30 Agosto 2026 14:00 tempo osservato: Sereno Sereno 24 50 1021 vento: Nord O 13
30 Agosto 2026 13:30 tempo osservato: Sereno Sereno 23 60 1021 vento: Nord O 13
30 Agosto 2026 13:00 tempo osservato: Poco Nuvoloso Poco Nuvoloso 23 60 1021 vento: Nord O/NO 7.4
30 Agosto 2026 12:30 tempo osservato: Poco Nuvoloso Poco Nuvoloso 23 60 1021 vento: Nord O/NO 9.3
30 Agosto 2026 12:00 tempo osservato: Sereno Sereno 22 64 1021 vento: Nord O/NO 9.3
30 Agosto 2026 11:30 tempo osservato: Sereno Sereno 21 68 1021 vento: Nord O/NO 9.3
30 Agosto 2026 11:00 tempo osservato: Sereno Sereno 20 72 1021 vento: Nord O/NO 9.3
30 Agosto 2026 10:30 tempo osservato: Sereno Sereno 19 77 1021 vento: Nord O/NO 7.4
30 Agosto 2026 10:00 tempo osservato: Sereno Sereno 17 82 1021 vento: Nord N 3.7
30 Agosto 2026 09:30 tempo osservato: Sereno Sereno 16 82 1021 vento: Nord N 0
30 Agosto 2026 09:00 tempo osservato: Sereno Sereno 13 93 1021 vento: Nord N 0
30 Agosto 2026 08:30 tempo osservato: Sereno Sereno 12 93 1021 vento: Nord N 1.8
30 Agosto 2026 08:00 tempo osservato: Sereno Sereno 11 93 1021 vento: Nord N 0